createdAt,value
2023-03-29T00:00:39.025Z,10.55
2023-03-29T00:03:06.278Z,10.50
2023-03-29T00:05:36.476Z,10.46
2023-03-29T00:08:04.702Z,10.44
2023-03-29T00:10:34.013Z,10.46
2023-03-29T00:13:01.993Z,10.34
2023-03-29T00:15:29.129Z,10.23
2023-03-29T00:17:56.451Z,10.27
2023-03-29T00:20:23.759Z,10.15
2023-03-29T00:22:51.239Z,10.14
2023-03-29T00:25:18.399Z,10.22
2023-03-29T00:27:45.523Z,10.25
2023-03-29T00:30:15.545Z,10.30
2023-03-29T00:32:43.170Z,10.33
2023-03-29T00:35:11.357Z,10.35
2023-03-29T00:37:38.662Z,10.39
2023-03-29T00:40:12.557Z,10.51
2023-03-29T00:42:39.718Z,10.54
2023-03-29T00:45:12.812Z,10.47
2023-03-29T00:47:53.283Z,10.38
2023-03-29T00:50:32.902Z,10.33
2023-03-29T00:53:10.148Z,10.23
2023-03-29T00:55:46.259Z,10.06
2023-03-29T00:58:18.503Z,10.00
2023-03-29T01:00:53.236Z,9.95
2023-03-29T01:03:25.341Z,9.90
2023-03-29T01:06:00.503Z,9.98
2023-03-29T01:08:35.053Z,10.01
2023-03-29T01:11:15.469Z,10.04
2023-03-29T01:14:03.894Z,10.10
2023-03-29T01:16:38.588Z,10.16
2023-03-29T01:19:15.351Z,10.30
2023-03-29T01:21:52.676Z,10.41
2023-03-29T01:24:26.295Z,10.45
2023-03-29T01:27:16.186Z,10.42
2023-03-29T01:29:49.224Z,10.25
2023-03-29T01:32:31.100Z,10.12
2023-03-29T01:35:01.357Z,10.21
2023-03-29T01:37:40.678Z,10.27
2023-03-29T01:40:08.422Z,10.28
2023-03-29T01:42:51.771Z,10.24
2023-03-29T01:45:51.960Z,10.28
2023-03-29T01:48:37.478Z,10.24
2023-03-29T01:51:24.410Z,10.20
2023-03-29T01:54:09.811Z,10.16
2023-03-29T01:56:44.290Z,10.24
2023-03-29T01:59:17.527Z,10.37
2023-03-29T02:01:52.626Z,10.49
2023-03-29T02:04:31.888Z,10.51
2023-03-29T02:07:01.951Z,10.47
2023-03-29T02:09:36.724Z,10.45
2023-03-29T02:12:07.221Z,10.50
2023-03-29T02:14:35.456Z,10.54
2023-03-29T02:17:32.298Z,10.61
2023-03-29T02:20:15.395Z,10.51
2023-03-29T02:23:01.951Z,10.48
2023-03-29T02:25:36.221Z,10.42
2023-03-29T02:28:06.142Z,10.45
2023-03-29T02:30:40.158Z,10.49
2023-03-29T02:33:36.188Z,10.48
2023-03-29T02:36:17.978Z,10.39
2023-03-29T02:38:46.557Z,10.42
2023-03-29T02:41:14.566Z,10.28
2023-03-29T02:43:43.700Z,10.26
2023-03-29T02:46:13.468Z,10.38
2023-03-29T02:48:41.136Z,10.41
2023-03-29T02:51:30.086Z,10.43
2023-03-29T02:54:11.742Z,10.45
2023-03-29T02:56:51.219Z,10.47
2023-03-29T02:59:25.024Z,10.45
2023-03-29T03:01:53.682Z,10.44
2023-03-29T03:04:25.909Z,10.44
2023-03-29T03:06:53.938Z,10.38
2023-03-29T03:09:21.639Z,10.45
2023-03-29T03:11:49.166Z,10.46
2023-03-29T03:14:25.063Z,10.48
2023-03-29T03:16:55.650Z,10.51
2023-03-29T03:19:24.643Z,10.49
2023-03-29T03:21:58.477Z,10.44
2023-03-29T03:24:29.238Z,10.32
2023-03-29T03:26:58.397Z,10.32
2023-03-29T03:29:26.394Z,10.26
2023-03-29T03:32:17.447Z,10.14
2023-03-29T03:34:53.558Z,10.09
2023-03-29T03:37:24.203Z,10.03
2023-03-29T03:39:54.785Z,10.02
2023-03-29T03:42:24.098Z,10.00
2023-03-29T03:44:54.658Z,9.95
2023-03-29T03:47:42.360Z,9.89
2023-03-29T03:50:20.960Z,9.79
2023-03-29T03:52:52.460Z,9.79
2023-03-29T03:55:25.398Z,9.72
2023-03-29T03:58:15.020Z,9.67
2023-03-29T04:00:43.020Z,9.60
2023-03-29T04:03:28.642Z,9.59
2023-03-29T04:05:56.264Z,9.61
2023-03-29T04:08:27.572Z,9.55
2023-03-29T04:11:20.964Z,9.49
2023-03-29T04:13:49.328Z,9.45
2023-03-29T04:16:31.088Z,9.46
2023-03-29T04:19:11.244Z,9.46
2023-03-29T04:21:43.261Z,9.43
2023-03-29T04:24:10.655Z,9.39
2023-03-29T04:26:40.741Z,9.39
2023-03-29T04:29:15.478Z,9.41
2023-03-29T04:31:47.722Z,9.42
2023-03-29T04:34:43.134Z,9.40
2023-03-29T04:37:10.909Z,9.37
2023-03-29T04:39:39.559Z,9.40
2023-03-29T04:42:09.231Z,9.40
2023-03-29T04:44:40.232Z,9.45
2023-03-29T04:47:11.940Z,9.51
2023-03-29T04:49:39.227Z,9.57
2023-03-29T04:52:11.547Z,9.48
2023-03-29T04:54:38.613Z,9.53
2023-03-29T04:57:19.094Z,9.60
2023-03-29T04:59:56.003Z,9.69
2023-03-29T05:02:49.498Z,9.68
2023-03-29T05:05:16.951Z,9.66
2023-03-29T05:07:48.169Z,9.71
2023-03-29T05:10:18.295Z,9.72
2023-03-29T05:12:45.813Z,9.66
2023-03-29T05:15:13.586Z,9.73
2023-03-29T05:17:40.978Z,9.82
2023-03-29T05:20:12.833Z,9.84
2023-03-29T05:22:42.753Z,9.87
2023-03-29T05:25:14.159Z,9.83
2023-03-29T05:27:43.537Z,9.69
2023-03-29T05:30:11.737Z,9.54
2023-03-29T05:33:01.755Z,9.40
2023-03-29T05:35:30.083Z,9.43
2023-03-29T05:37:58.252Z,9.48
2023-03-29T05:40:26.349Z,9.49
2023-03-29T05:43:16.629Z,9.57
2023-03-29T05:45:44.006Z,9.66
2023-03-29T05:48:19.972Z,9.75
2023-03-29T05:50:52.408Z,9.78
2023-03-29T05:53:22.786Z,9.77
2023-03-29T05:55:51.319Z,9.71
2023-03-29T05:58:21.777Z,9.73
2023-03-29T06:00:49.968Z,9.72
2023-03-29T06:03:34.038Z,9.69
2023-03-29T06:06:04.355Z,9.78
2023-03-29T06:08:35.276Z,9.81
2023-03-29T06:11:13.942Z,9.83
2023-03-29T06:13:59.989Z,9.96
2023-03-29T06:16:29.445Z,10.01
2023-03-29T06:18:57.317Z,10.17
2023-03-29T06:21:29.313Z,10.33
2023-03-29T06:24:00.447Z,10.47
2023-03-29T06:26:33.253Z,10.55
2023-03-29T06:29:04.431Z,10.67
2023-03-29T06:31:36.526Z,10.87
2023-03-29T06:34:08.993Z,11.02
2023-03-29T06:36:41.262Z,11.07
2023-03-29T06:39:09.189Z,11.16
2023-03-29T06:41:57.056Z,11.26
2023-03-29T06:44:48.334Z,11.45
2023-03-29T06:47:20.281Z,11.69
2023-03-29T06:49:47.671Z,11.92
2023-03-29T06:52:31.369Z,12.05
2023-03-29T06:54:58.579Z,12.12
2023-03-29T06:57:27.731Z,12.34
2023-03-29T06:59:57.980Z,12.73
2023-03-29T07:02:50.536Z,12.99
2023-03-29T07:05:18.626Z,12.83
2023-03-29T07:08:05.549Z,12.69
2023-03-29T07:10:53.591Z,12.55
2023-03-29T07:13:42.750Z,12.66
2023-03-29T07:16:17.523Z,12.76
2023-03-29T07:18:51.681Z,12.88
2023-03-29T07:21:37.851Z,12.95
2023-03-29T07:24:07.011Z,13.04
2023-03-29T07:26:35.760Z,13.16
2023-03-29T07:29:06.699Z,13.14
2023-03-29T07:31:36.462Z,13.20
2023-03-29T07:34:24.545Z,13.30
2023-03-29T07:36:52.237Z,13.36
2023-03-29T07:39:20.615Z,13.44
2023-03-29T07:42:07.282Z,13.55
2023-03-29T07:44:37.513Z,13.48
2023-03-29T07:47:10.750Z,13.43
2023-03-29T07:49:38.847Z,13.44
2023-03-29T07:52:32.301Z,13.57
2023-03-29T07:54:59.514Z,13.70
2023-03-29T07:57:38.858Z,13.86
2023-03-29T08:00:16.358Z,14.04
2023-03-29T08:02:52.981Z,14.11
2023-03-29T08:05:37.724Z,14.13
2023-03-29T08:08:10.838Z,14.14
2023-03-29T08:11:06.899Z,14.14
2023-03-29T08:13:43.692Z,14.13
2023-03-29T08:16:39.716Z,14.11
2023-03-29T08:19:12.070Z,14.20
2023-03-29T08:21:52.189Z,14.26
2023-03-29T08:24:21.711Z,14.25
2023-03-29T08:26:53.813Z,14.31
2023-03-29T08:29:21.214Z,14.26
2023-03-29T08:31:49.284Z,14.21
2023-03-29T08:34:17.532Z,14.12
2023-03-29T08:37:11.231Z,14.07
2023-03-29T08:39:43.450Z,14.16
2023-03-29T08:42:46.911Z,14.14
2023-03-29T08:45:26.803Z,14.14
2023-03-29T08:48:03.172Z,14.26
2023-03-29T08:50:48.113Z,14.52
2023-03-29T08:53:27.411Z,14.71
2023-03-29T08:56:27.005Z,14.66
2023-03-29T08:59:34.620Z,14.64
2023-03-29T09:02:17.736Z,14.62
2023-03-29T09:04:49.024Z,14.66
2023-03-29T09:07:40.416Z,14.61
2023-03-29T09:10:15.298Z,14.32
2023-03-29T09:13:07.739Z,13.92
2023-03-29T09:16:07.482Z,14.06
2023-03-29T09:19:10.866Z,14.01
2023-03-29T09:22:06.277Z,14.18
2023-03-29T09:24:54.268Z,14.49
2023-03-29T09:27:28.915Z,14.45
2023-03-29T09:30:41.929Z,14.50
2023-03-29T09:33:32.267Z,15.23
2023-03-29T09:36:31.914Z,15.87
2023-03-29T09:38:59.977Z,16.70
2023-03-29T09:41:41.833Z,17.39
2023-03-29T09:44:30.339Z,17.38
2023-03-29T09:47:28.172Z,17.32
2023-03-29T09:50:03.248Z,17.28
2023-03-29T09:52:31.812Z,17.07
2023-03-29T09:55:08.050Z,16.79
2023-03-29T09:58:06.191Z,17.79
2023-03-29T10:00:40.352Z,19.23
2023-03-29T10:03:10.174Z,20.00
2023-03-29T10:05:50.392Z,20.41
2023-03-29T10:08:30.765Z,20.37
2023-03-29T10:11:02.460Z,20.73
2023-03-29T10:13:33.152Z,21.06
2023-03-29T10:16:09.417Z,23.30
2023-03-29T10:18:42.104Z,23.20
2023-03-29T10:21:16.009Z,23.27
2023-03-29T10:23:44.610Z,23.57
2023-03-29T10:26:29.861Z,23.77
2023-03-29T10:29:00.553Z,23.81
2023-03-29T10:31:33.878Z,23.16
2023-03-29T10:34:05.413Z,24.14
2023-03-29T10:36:33.614Z,24.12
2023-03-29T10:39:06.030Z,23.73
2023-03-29T10:41:40.740Z,23.57
2023-03-29T10:44:35.292Z,24.81
2023-03-29T10:47:34.714Z,23.76
2023-03-29T10:50:07.797Z,23.41
2023-03-29T10:52:34.944Z,23.48
2023-03-29T10:55:04.753Z,23.99
2023-03-29T10:57:46.869Z,24.92
2023-03-29T11:00:37.450Z,24.98
2023-03-29T11:03:35.455Z,24.94
2023-03-29T11:06:33.396Z,25.88
2023-03-29T11:09:08.422Z,27.92
2023-03-29T11:12:08.561Z,29.32
2023-03-29T11:14:57.083Z,30.32
2023-03-29T11:17:34.356Z,30.24
2023-03-29T11:20:12.879Z,30.24
2023-03-29T11:22:49.205Z,29.56
2023-03-29T11:25:48.369Z,28.45
2023-03-29T11:28:32.305Z,29.71
2023-03-29T11:31:11.936Z,32.61
2023-03-29T11:33:38.946Z,35.36
2023-03-29T11:36:39.773Z,36.37
2023-03-29T11:39:34.344Z,33.84
2023-03-29T11:42:21.421Z,30.88
2023-03-29T11:45:00.032Z,30.28
2023-03-29T11:47:39.062Z,31.51
2023-03-29T11:50:16.822Z,32.48
2023-03-29T11:52:50.630Z,35.42
2023-03-29T11:55:29.671Z,35.17
2023-03-29T11:58:11.446Z,31.51
2023-03-29T12:01:04.464Z,30.03
2023-03-29T12:03:47.355Z,33.03
2023-03-29T12:06:22.730Z,34.72
2023-03-29T12:09:02.380Z,35.33
2023-03-29T12:11:40.718Z,35.83
2023-03-29T12:14:28.062Z,37.03
2023-03-29T12:17:02.244Z,38.07
2023-03-29T12:19:41.020Z,36.39
2023-03-29T12:22:11.311Z,34.69
2023-03-29T12:24:47.101Z,33.04
2023-03-29T12:27:37.843Z,32.11
2023-03-29T12:30:32.545Z,30.87
2023-03-29T12:33:31.854Z,29.39
2023-03-29T12:36:41.513Z,28.52
2023-03-29T12:39:37.466Z,27.72
2023-03-29T12:42:24.215Z,26.75
2023-03-29T12:45:34.193Z,26.12
2023-03-29T12:48:02.120Z,25.38
2023-03-29T12:50:37.023Z,24.83
2023-03-29T12:53:22.133Z,24.78
2023-03-29T12:55:55.308Z,24.37
2023-03-29T12:58:41.960Z,24.25
2023-03-29T13:01:29.696Z,24.18
2023-03-29T13:04:10.976Z,24.47
2023-03-29T13:06:56.353Z,24.14
2023-03-29T13:09:23.117Z,23.39
2023-03-29T13:11:54.233Z,23.36
2023-03-29T13:14:26.108Z,23.36
2023-03-29T13:16:55.198Z,23.07
2023-03-29T13:19:38.541Z,22.99
2023-03-29T13:22:19.051Z,22.90
2023-03-29T13:25:07.195Z,22.92
2023-03-29T13:27:43.846Z,23.26
2023-03-29T13:30:32.955Z,23.19
2023-03-29T13:33:15.697Z,23.07
2023-03-29T13:36:03.304Z,22.83
2023-03-29T13:38:35.165Z,22.73
2023-03-29T13:41:07.492Z,22.72
2023-03-29T13:43:37.913Z,22.61
2023-03-29T13:46:24.820Z,22.26
2023-03-29T13:49:22.217Z,21.95
2023-03-29T13:55:04.623Z,21.54
2023-03-29T13:57:33.943Z,21.65
2023-03-29T14:00:11.987Z,21.73
2023-03-29T14:02:49.430Z,21.64
2023-03-29T14:05:28.886Z,21.47
2023-03-29T14:07:57.052Z,21.23
2023-03-29T14:10:35.154Z,21.13
2023-03-29T14:13:07.496Z,21.39
2023-03-29T14:15:55.468Z,21.87
2023-03-29T14:18:25.702Z,22.01
2023-03-29T14:20:55.578Z,21.85
2023-03-29T14:23:30.161Z,21.74
2023-03-29T14:26:08.003Z,21.49
2023-03-29T14:28:35.465Z,21.39
2023-03-29T14:31:02.569Z,21.51
2023-03-29T14:33:38.633Z,21.74
2023-03-29T14:36:06.749Z,21.77
2023-03-29T14:38:37.627Z,21.80
2023-03-29T14:41:06.182Z,21.63
2023-03-29T14:43:33.566Z,21.47
2023-03-29T14:46:04.890Z,21.34
2023-03-29T14:48:35.890Z,21.09
2023-03-29T14:51:06.600Z,20.95
2023-03-29T14:53:37.442Z,20.85
2023-03-29T14:56:06.979Z,20.93
2023-03-29T14:58:36.537Z,20.80
2023-03-29T15:01:08.005Z,20.61
2023-03-29T15:03:57.083Z,20.66
2023-03-29T15:06:26.429Z,20.76
2023-03-29T15:09:04.335Z,20.74
2023-03-29T15:11:34.588Z,20.64
2023-03-29T15:14:01.827Z,20.54
2023-03-29T15:16:30.752Z,20.45
2023-03-29T15:18:58.735Z,20.58
2023-03-29T15:21:35.472Z,20.75
2023-03-29T15:24:04.365Z,20.91
2023-03-29T15:26:37.377Z,21.00
2023-03-29T15:29:25.711Z,20.98
2023-03-29T15:31:57.987Z,20.74
2023-03-29T15:34:27.928Z,20.63
2023-03-29T15:36:59.096Z,20.64
2023-03-29T15:39:31.017Z,20.69
2023-03-29T15:41:59.272Z,20.71
2023-03-29T15:44:33.808Z,20.65
2023-03-29T15:47:02.773Z,20.57
2023-03-29T15:49:30.314Z,20.51
2023-03-29T15:51:58.636Z,20.48
2023-03-29T15:54:26.742Z,20.36
2023-03-29T15:57:03.621Z,20.26
2023-03-29T15:59:32.034Z,20.12
2023-03-29T16:02:02.964Z,20.01
2023-03-29T16:04:33.001Z,19.87
2023-03-29T16:07:16.244Z,19.87
2023-03-29T16:09:44.299Z,19.89
2023-03-29T16:12:12.628Z,19.92
2023-03-29T16:14:43.312Z,19.90
2023-03-29T16:17:14.937Z,19.86
2023-03-29T16:19:45.487Z,19.81
2023-03-29T16:22:23.806Z,19.77
2023-03-29T16:24:51.713Z,19.70
2023-03-29T16:27:21.634Z,19.59
2023-03-29T16:29:49.219Z,19.46
2023-03-29T16:32:17.124Z,19.29
2023-03-29T16:34:50.120Z,19.26
2023-03-29T16:37:18.352Z,19.21
2023-03-29T16:39:49.617Z,19.20
2023-03-29T16:42:25.946Z,19.15
2023-03-29T16:45:00.807Z,19.06
2023-03-29T16:47:28.336Z,18.98
2023-03-29T16:49:55.727Z,18.90
2023-03-29T16:52:23.789Z,18.81
2023-03-29T16:54:56.975Z,18.66
2023-03-29T16:57:27.320Z,18.45
2023-03-29T16:59:56.415Z,18.22
2023-03-29T17:02:26.945Z,18.11
2023-03-29T17:04:57.708Z,17.98
2023-03-29T17:07:29.939Z,17.91
2023-03-29T17:09:57.942Z,17.75
2023-03-29T17:12:25.056Z,17.71
2023-03-29T17:14:55.818Z,17.71
2023-03-29T17:17:23.527Z,17.78
2023-03-29T17:19:50.414Z,17.72
2023-03-29T17:22:21.251Z,17.80
2023-03-29T17:24:53.425Z,17.85
2023-03-29T17:27:22.031Z,17.83
2023-03-29T17:29:55.138Z,17.79
2023-03-29T17:32:32.867Z,17.69
2023-03-29T17:35:00.473Z,17.74
2023-03-29T17:37:28.832Z,17.76
2023-03-29T17:39:56.162Z,17.72
2023-03-29T17:42:25.760Z,17.71
2023-03-29T17:44:53.487Z,17.54
2023-03-29T17:47:20.877Z,17.44
2023-03-29T17:49:48.472Z,17.39
2023-03-29T17:52:16.097Z,17.43
2023-03-29T17:54:42.890Z,17.36
2023-03-29T17:57:09.848Z,17.31
2023-03-29T17:59:38.347Z,17.29
2023-03-29T18:02:06.141Z,17.27
2023-03-29T18:04:34.457Z,17.24
2023-03-29T18:07:01.518Z,17.22
2023-03-29T18:09:30.716Z,17.19
2023-03-29T18:11:58.807Z,17.11
2023-03-29T18:14:26.827Z,17.06
2023-03-29T18:16:54.063Z,16.94
2023-03-29T18:19:21.528Z,16.92
2023-03-29T18:21:49.344Z,16.87
2023-03-29T18:24:20.273Z,16.86
2023-03-29T18:26:47.403Z,16.87
2023-03-29T18:29:16.023Z,16.82
2023-03-29T18:31:47.028Z,16.72
2023-03-29T18:34:15.075Z,16.68
2023-03-29T18:36:42.734Z,16.68
2023-03-29T18:39:11.300Z,16.62
2023-03-29T18:41:40.914Z,16.57
2023-03-29T18:44:16.444Z,16.58
2023-03-29T18:46:43.509Z,16.42
2023-03-29T18:49:13.177Z,16.42
2023-03-29T18:51:40.299Z,16.42
2023-03-29T18:54:08.971Z,16.40
2023-03-29T18:56:36.041Z,16.37
2023-03-29T18:59:06.156Z,16.34
2023-03-29T19:01:34.818Z,16.33
2023-03-29T19:04:01.837Z,16.35
2023-03-29T19:06:28.779Z,16.29
2023-03-29T19:08:58.239Z,16.27
2023-03-29T19:11:28.364Z,16.24
2023-03-29T19:13:59.103Z,16.26
2023-03-29T19:16:27.562Z,16.21
2023-03-29T19:18:54.960Z,16.17
2023-03-29T19:21:24.393Z,16.18
2023-03-29T19:23:53.090Z,16.24
2023-03-29T19:26:20.093Z,16.31
2023-03-29T19:28:47.033Z,16.33
2023-03-29T19:31:20.058Z,16.36
2023-03-29T19:33:46.989Z,16.40
2023-03-29T19:36:14.200Z,16.47
2023-03-29T19:38:41.616Z,16.53
2023-03-29T19:41:09.058Z,16.52
2023-03-29T19:43:36.385Z,16.47
2023-03-29T19:46:11.803Z,16.46
2023-03-29T19:48:40.415Z,16.41
2023-03-29T19:51:08.894Z,16.33
2023-03-29T19:53:38.462Z,16.34
2023-03-29T19:56:07.738Z,16.34
2023-03-29T19:58:39.385Z,16.36
2023-03-29T20:01:06.589Z,16.37
2023-03-29T20:03:34.370Z,16.39
2023-03-29T20:06:02.028Z,16.42
2023-03-29T20:08:29.117Z,16.48
2023-03-29T20:11:02.157Z,16.48
2023-03-29T20:13:38.344Z,16.47
2023-03-29T20:16:16.289Z,16.54
2023-03-29T20:18:47.004Z,16.55
2023-03-29T20:21:17.064Z,16.53
2023-03-29T20:23:44.301Z,16.50
2023-03-29T20:26:11.391Z,16.48
2023-03-29T20:28:38.380Z,16.49
2023-03-29T20:31:11.304Z,16.44
2023-03-29T20:33:39.046Z,16.47
2023-03-29T20:36:12.661Z,16.53
2023-03-29T20:38:39.861Z,16.59
2023-03-29T20:41:09.435Z,16.64
2023-03-29T20:43:41.221Z,16.63
2023-03-29T20:46:18.278Z,16.54
2023-03-29T20:48:54.689Z,16.56
2023-03-29T20:51:33.041Z,16.57
2023-03-29T20:54:05.106Z,16.60
2023-03-29T20:56:34.338Z,16.64
2023-03-29T20:59:01.850Z,16.66
2023-03-29T21:01:30.093Z,16.62
2023-03-29T21:03:57.262Z,16.59
2023-03-29T21:06:24.793Z,16.58
2023-03-29T21:08:52.630Z,16.54
2023-03-29T21:11:20.963Z,16.55
2023-03-29T21:13:49.269Z,16.53
2023-03-29T21:16:19.876Z,16.52
2023-03-29T21:18:47.454Z,16.49
2023-03-29T21:21:17.263Z,16.46
2023-03-29T21:23:43.946Z,16.40
2023-03-29T21:26:10.681Z,16.37
2023-03-29T21:28:37.750Z,16.33
2023-03-29T21:31:06.225Z,16.31
2023-03-29T21:33:34.253Z,16.28
2023-03-29T21:36:01.304Z,16.26
2023-03-29T21:38:28.732Z,16.23
2023-03-29T21:40:55.912Z,16.25
2023-03-29T21:43:22.953Z,16.21
2023-03-29T21:45:50.375Z,16.23
2023-03-29T21:48:18.005Z,16.23
2023-03-29T21:50:49.019Z,16.23
2023-03-29T21:53:16.147Z,16.25
2023-03-29T21:55:43.912Z,16.21
2023-03-29T21:58:11.903Z,16.22
2023-03-29T22:00:38.607Z,16.27
2023-03-29T22:03:06.303Z,16.23
2023-03-29T22:05:33.265Z,16.24
2023-03-29T22:08:00.379Z,16.29
2023-03-29T22:10:27.541Z,16.35
2023-03-29T22:12:54.298Z,16.41
2023-03-29T22:15:21.123Z,16.40
2023-03-29T22:17:48.379Z,16.40
2023-03-29T22:20:15.598Z,16.44
2023-03-29T22:22:49.904Z,16.51
2023-03-29T22:25:18.708Z,16.55
2023-03-29T22:27:47.569Z,16.58
2023-03-29T22:30:15.998Z,16.60
2023-03-29T22:32:43.270Z,16.54
2023-03-29T22:35:10.709Z,16.56
2023-03-29T22:37:43.152Z,16.59
2023-03-29T22:40:11.474Z,16.60
2023-03-29T22:42:38.403Z,16.61
2023-03-29T22:45:06.554Z,16.63
2023-03-29T22:47:35.546Z,16.67
2023-03-29T22:50:02.539Z,16.69
2023-03-29T22:52:29.265Z,16.72
2023-03-29T22:54:55.959Z,16.72
2023-03-29T22:57:22.744Z,16.72
2023-03-29T22:59:49.516Z,16.70
2023-03-29T23:02:16.289Z,16.68
2023-03-29T23:04:45.389Z,16.66
2023-03-29T23:07:12.308Z,16.67
2023-03-29T23:09:38.957Z,16.70
2023-03-29T23:12:05.810Z,16.70
2023-03-29T23:14:33.752Z,16.73
2023-03-29T23:17:00.488Z,16.73
2023-03-29T23:19:27.214Z,16.71
2023-03-29T23:21:55.162Z,16.75
2023-03-29T23:24:21.896Z,16.69
2023-03-29T23:26:49.232Z,16.69
2023-03-29T23:29:16.316Z,16.73
2023-03-29T23:31:44.312Z,16.73
2023-03-29T23:34:13.613Z,16.76
2023-03-29T23:36:40.849Z,16.58
2023-03-29T23:39:08.278Z,16.46
2023-03-29T23:41:36.227Z,16.49
2023-03-29T23:44:04.474Z,16.38
2023-03-29T23:46:33.846Z,16.34
2023-03-29T23:49:00.689Z,16.34
2023-03-29T23:51:30.619Z,16.37
2023-03-29T23:53:58.699Z,16.40
2023-03-29T23:56:25.470Z,16.41
2023-03-29T23:58:52.322Z,16.42
